createdAt,value
2023-01-21T00:00:40.300Z,8.12
2023-01-21T00:01:42.827Z,5.54
2023-01-21T00:02:45.372Z,4.44
2023-01-21T00:03:47.968Z,5.24
2023-01-21T00:04:50.575Z,4.43
2023-01-21T00:05:53.156Z,6.53
2023-01-21T00:06:55.964Z,3.79
2023-01-21T00:07:59.007Z,13.33
2023-01-21T00:09:02.266Z,5.82
2023-01-21T00:10:04.810Z,6.21
2023-01-21T00:11:07.355Z,4.91
2023-01-21T00:12:09.878Z,4.03
2023-01-21T00:13:12.416Z,5.11
2023-01-21T00:14:15.039Z,3.90
2023-01-21T00:15:17.573Z,4.05
2023-01-21T00:16:20.114Z,5.68
2023-01-21T00:17:22.642Z,3.65
2023-01-21T00:18:25.215Z,4.14
2023-01-21T00:19:27.779Z,4.39
2023-01-21T00:20:30.306Z,5.20
2023-01-21T00:21:33.292Z,4.11
2023-01-21T00:22:35.887Z,4.94
2023-01-21T00:23:38.464Z,7.03
2023-01-21T00:24:41.170Z,2.94
2023-01-21T00:25:43.658Z,3.81
2023-01-21T00:26:46.186Z,4.19
2023-01-21T00:27:48.724Z,6.41
2023-01-21T00:28:51.258Z,5.67
2023-01-21T00:29:53.836Z,3.55
2023-01-21T00:30:56.540Z,4.47
2023-01-21T00:31:59.180Z,4.45
2023-01-21T00:33:01.749Z,5.77
2023-01-21T00:34:04.306Z,4.25
2023-01-21T00:35:06.850Z,5.58
2023-01-21T00:36:09.812Z,3.26
2023-01-21T00:37:12.333Z,6.24
2023-01-21T00:38:14.864Z,5.07
2023-01-21T00:39:17.387Z,3.73
2023-01-21T00:40:19.940Z,6.39
2023-01-21T00:41:22.479Z,5.10
2023-01-21T00:42:25.011Z,7.18
2023-01-21T00:43:27.589Z,8.03
2023-01-21T00:44:30.126Z,3.22
2023-01-21T00:45:32.687Z,4.68
2023-01-21T00:46:35.331Z,4.71
2023-01-21T00:47:37.899Z,3.66
2023-01-21T00:48:40.435Z,4.14
2023-01-21T00:49:42.970Z,4.52
2023-01-21T00:50:46.017Z,5.97
2023-01-21T00:51:48.564Z,8.88
2023-01-21T00:52:51.152Z,5.02
2023-01-21T00:53:53.673Z,3.94
2023-01-21T00:54:56.201Z,3.49
2023-01-21T00:55:58.773Z,3.15
2023-01-21T00:57:01.306Z,4.02
2023-01-21T00:58:04.500Z,3.69
2023-01-21T00:59:07.272Z,4.11
2023-01-21T01:00:10.608Z,3.90
2023-01-21T01:01:13.215Z,3.97
2023-01-21T01:02:16.023Z,3.47
2023-01-21T01:03:18.580Z,3.21
2023-01-21T01:04:21.220Z,3.39
2023-01-21T01:05:23.770Z,5.67
2023-01-21T01:06:26.641Z,5.02
2023-01-21T01:07:29.272Z,4.09
2023-01-21T01:08:31.808Z,6.91
2023-01-21T01:09:34.340Z,4.89
2023-01-21T01:10:37.576Z,7.69
2023-01-21T01:11:40.151Z,4.02
2023-01-21T01:12:42.674Z,2.96
2023-01-21T01:13:45.116Z,8.35
2023-01-21T01:14:47.666Z,3.87
2023-01-21T01:15:50.339Z,5.12
2023-01-21T01:16:53.296Z,5.91
2023-01-21T01:17:55.856Z,4.08
2023-01-21T01:18:58.386Z,3.41
2023-01-21T01:20:01.026Z,3.07
2023-01-21T01:21:03.561Z,8.83
2023-01-21T01:22:06.126Z,5.28
2023-01-21T01:23:08.648Z,3.71
2023-01-21T01:24:11.186Z,4.83
2023-01-21T01:25:13.764Z,5.03
2023-01-21T01:26:16.302Z,5.41
2023-01-21T01:27:18.830Z,3.63
2023-01-21T01:28:21.284Z,3.81
2023-01-21T01:29:23.812Z,3.01
2023-01-21T01:30:26.355Z,6.29
2023-01-21T01:31:29.065Z,3.65
2023-01-21T01:32:31.711Z,3.72
2023-01-21T01:33:34.254Z,3.81
2023-01-21T01:34:36.783Z,3.25
2023-01-21T01:35:39.255Z,4.27
2023-01-21T01:36:41.696Z,5.53
2023-01-21T01:37:44.253Z,4.48
2023-01-21T01:38:46.810Z,5.11
2023-01-21T01:39:49.391Z,4.19
2023-01-21T01:41:09.933Z,4.31
2023-01-21T01:42:12.466Z,8.87
2023-01-21T01:43:15.125Z,8.30
2023-01-21T01:44:17.686Z,9.28
2023-01-21T01:45:20.242Z,8.25
2023-01-21T01:46:24.252Z,5.75
2023-01-21T01:47:26.935Z,5.41
2023-01-21T01:48:29.557Z,3.87
2023-01-21T01:49:32.084Z,5.39
2023-01-21T01:50:34.625Z,3.45
2023-01-21T01:51:37.160Z,4.49
2023-01-21T01:52:39.747Z,4.47
2023-01-21T01:53:42.327Z,4.26
2023-01-21T01:54:44.868Z,4.31
2023-01-21T01:55:47.409Z,4.31
2023-01-21T01:56:50.042Z,4.34
2023-01-21T01:57:52.591Z,3.53
2023-01-21T01:58:55.165Z,4.38
2023-01-21T01:59:57.738Z,4.67
2023-01-21T02:01:00.375Z,6.60
2023-01-21T02:02:02.916Z,6.19
2023-01-21T02:03:05.535Z,5.17
2023-01-21T02:04:08.149Z,2.75
2023-01-21T02:05:10.693Z,5.78
2023-01-21T02:06:13.431Z,4.32
2023-01-21T02:07:15.958Z,4.15
2023-01-21T02:08:18.642Z,7.83
2023-01-21T02:09:21.174Z,4.55
2023-01-21T02:10:23.856Z,4.80
2023-01-21T02:11:26.425Z,8.75
2023-01-21T02:12:28.945Z,3.95
2023-01-21T02:13:31.482Z,3.94
2023-01-21T02:14:34.032Z,3.53
2023-01-21T02:15:36.600Z,5.05
2023-01-21T02:16:39.248Z,4.82
2023-01-21T02:17:41.790Z,2.68
2023-01-21T02:18:44.319Z,5.64
2023-01-21T02:19:46.863Z,3.36
2023-01-21T02:20:49.419Z,2.63
2023-01-21T02:21:51.846Z,4.15
2023-01-21T02:22:54.385Z,3.89
2023-01-21T02:23:56.925Z,4.31
2023-01-21T02:24:59.464Z,4.03
2023-01-21T02:26:02.021Z,4.25
2023-01-21T02:27:04.546Z,5.53
2023-01-21T02:28:07.248Z,5.59
2023-01-21T02:29:09.764Z,3.87
2023-01-21T02:30:12.727Z,3.69
2023-01-21T02:31:15.425Z,4.85
2023-01-21T02:32:18.003Z,3.02
2023-01-21T02:33:20.583Z,4.05
2023-01-21T02:34:23.136Z,3.55
2023-01-21T02:35:25.661Z,4.17
2023-01-21T02:36:28.701Z,5.53
2023-01-21T02:37:31.316Z,5.83
2023-01-21T02:38:34.490Z,3.36
2023-01-21T02:39:37.091Z,4.56
2023-01-21T02:40:39.740Z,3.58
2023-01-21T02:41:42.261Z,6.79
2023-01-21T02:42:44.801Z,5.35
2023-01-21T02:43:47.391Z,4.62
2023-01-21T02:44:49.900Z,2.95
2023-01-21T02:45:52.456Z,4.01
2023-01-21T02:46:55.007Z,4.03
2023-01-21T02:47:57.953Z,4.61
2023-01-21T02:49:00.530Z,3.37
2023-01-21T02:50:03.096Z,4.47
2023-01-21T02:51:05.723Z,3.91
2023-01-21T02:52:08.407Z,5.72
2023-01-21T02:53:10.931Z,3.75
2023-01-21T02:54:13.503Z,4.75
2023-01-21T02:55:16.054Z,4.89
2023-01-21T02:56:18.788Z,4.37
2023-01-21T02:57:21.318Z,2.66
2023-01-21T02:58:23.861Z,4.31
2023-01-21T02:59:26.462Z,4.48
2023-01-21T03:00:29.540Z,13.74
2023-01-21T03:01:32.066Z,5.38
2023-01-21T03:02:34.629Z,3.56
2023-01-21T03:03:37.131Z,4.87
2023-01-21T03:04:39.711Z,8.39
2023-01-21T03:05:42.245Z,3.86
2023-01-21T03:06:44.893Z,4.33
2023-01-21T03:07:47.412Z,4.37
2023-01-21T03:08:49.948Z,4.25
2023-01-21T03:09:52.570Z,3.17
2023-01-21T03:10:55.214Z,4.71
2023-01-21T03:11:57.754Z,3.74
2023-01-21T03:13:00.292Z,2.53
2023-01-21T03:14:02.831Z,7.09
2023-01-21T03:15:05.395Z,3.83
2023-01-21T03:16:08.257Z,3.47
2023-01-21T03:17:10.971Z,3.14
2023-01-21T03:18:13.521Z,6.43
2023-01-21T03:19:16.058Z,5.62
2023-01-21T03:20:19.036Z,3.38
2023-01-21T03:21:21.566Z,3.74
2023-01-21T03:22:24.097Z,4.83
2023-01-21T03:23:26.696Z,3.35
2023-01-21T03:24:29.319Z,5.78
2023-01-21T03:25:31.903Z,3.63
2023-01-21T03:26:34.677Z,5.76
2023-01-21T03:27:37.311Z,3.69
2023-01-21T03:28:39.830Z,4.83
2023-01-21T03:29:42.492Z,3.46
2023-01-21T03:30:45.089Z,4.27
2023-01-21T03:31:47.681Z,2.75
2023-01-21T03:32:50.200Z,5.77
2023-01-21T03:33:52.773Z,7.69
2023-01-21T03:34:55.347Z,4.00
2023-01-21T03:35:57.974Z,7.14
2023-01-21T03:37:00.790Z,5.31
2023-01-21T03:38:03.342Z,4.63
2023-01-21T03:39:05.860Z,4.47
2023-01-21T03:40:09.407Z,3.78
2023-01-21T03:41:12.088Z,4.86
2023-01-21T03:42:14.610Z,5.39
2023-01-21T03:43:17.268Z,2.77
2023-01-21T03:44:19.810Z,4.03
2023-01-21T03:45:22.373Z,4.76
2023-01-21T03:46:25.082Z,4.33
2023-01-21T03:47:27.616Z,5.41
2023-01-21T03:48:30.143Z,7.38
2023-01-21T03:49:32.732Z,3.92
2023-01-21T03:50:35.264Z,4.16
2023-01-21T03:51:37.807Z,4.58
2023-01-21T03:52:40.333Z,5.72
2023-01-21T03:53:42.784Z,4.41
2023-01-21T03:54:45.294Z,3.92
2023-01-21T03:55:47.859Z,3.24
2023-01-21T03:56:50.616Z,4.73
2023-01-21T03:57:53.156Z,7.83
2023-01-21T03:58:55.786Z,9.68
2023-01-21T03:59:58.356Z,4.09
2023-01-21T04:01:01.222Z,4.37
2023-01-21T04:02:04.295Z,4.64
2023-01-21T04:03:06.942Z,5.04
2023-01-21T04:04:09.474Z,5.26
2023-01-21T04:05:12.013Z,5.93
2023-01-21T04:06:14.542Z,4.31
2023-01-21T04:07:17.140Z,5.57
2023-01-21T04:08:19.755Z,4.80
2023-01-21T04:09:22.328Z,4.92
2023-01-21T04:10:24.829Z,3.67
2023-01-21T04:11:27.519Z,4.47
2023-01-21T04:12:30.016Z,4.82
2023-01-21T04:13:32.570Z,4.31
2023-01-21T04:14:35.127Z,5.38
2023-01-21T04:15:37.657Z,5.92
2023-01-21T04:16:40.319Z,7.32
2023-01-21T04:17:42.865Z,5.75
2023-01-21T04:18:45.363Z,4.83
2023-01-21T04:19:47.932Z,8.66
2023-01-21T04:20:50.763Z,7.30
2023-01-21T04:21:53.297Z,7.26
2023-01-21T04:22:55.825Z,13.20
2023-01-21T04:23:58.374Z,15.02
2023-01-21T04:25:00.999Z,10.08
2023-01-21T04:26:03.549Z,13.79
2023-01-21T04:27:06.069Z,14.23
2023-01-21T04:28:08.592Z,12.58
2023-01-21T04:29:11.136Z,6.52
2023-01-21T04:30:14.119Z,6.25
2023-01-21T04:31:16.724Z,5.69
2023-01-21T04:32:19.484Z,12.68
2023-01-21T04:33:22.034Z,22.08
2023-01-21T04:34:24.554Z,12.45
2023-01-21T04:35:27.116Z,12.10
2023-01-21T04:36:29.856Z,18.36
2023-01-21T04:37:32.402Z,16.47
2023-01-21T04:38:34.961Z,16.40
2023-01-21T04:39:37.525Z,17.35
2023-01-21T04:40:40.168Z,12.20
2023-01-21T04:41:42.711Z,15.43
2023-01-21T04:42:45.251Z,13.76
2023-01-21T04:43:47.823Z,11.19
2023-01-21T04:44:50.373Z,10.48
2023-01-21T04:45:52.997Z,8.94
2023-01-21T04:46:55.860Z,5.83
2023-01-21T04:47:58.402Z,12.99
2023-01-21T04:49:00.936Z,15.89
2023-01-21T04:50:03.470Z,9.07
2023-01-21T04:51:06.675Z,9.48
2023-01-21T04:52:09.204Z,7.49
2023-01-21T04:53:11.732Z,15.68
2023-01-21T04:54:14.265Z,11.41
2023-01-21T04:55:16.862Z,8.53
2023-01-21T04:56:19.507Z,9.76
2023-01-21T04:57:22.078Z,8.69
2023-01-21T04:58:24.622Z,7.28
2023-01-21T04:59:27.151Z,6.69
2023-01-21T05:00:29.687Z,4.80
2023-01-21T05:01:34.028Z,9.36
2023-01-21T05:02:36.660Z,6.27
2023-01-21T05:03:39.210Z,6.41
2023-01-21T05:04:41.768Z,6.73
2023-01-21T05:05:44.279Z,5.74
2023-01-21T05:06:46.967Z,6.03
2023-01-21T05:07:49.517Z,5.47
2023-01-21T05:08:52.057Z,6.02
2023-01-21T05:09:54.593Z,9.49
2023-01-21T05:10:57.644Z,5.44
2023-01-21T05:12:00.336Z,8.56
2023-01-21T05:13:02.868Z,5.76
2023-01-21T05:14:05.403Z,9.36
2023-01-21T05:15:07.944Z,8.66
2023-01-21T05:16:10.624Z,10.59
2023-01-21T05:17:13.137Z,6.85
2023-01-21T05:18:15.712Z,6.54
2023-01-21T05:19:18.154Z,7.60
2023-01-21T05:20:20.993Z,8.22
2023-01-21T05:21:23.532Z,6.81
2023-01-21T05:22:26.068Z,8.02
2023-01-21T05:23:28.672Z,8.78
2023-01-21T05:24:31.184Z,8.70
2023-01-21T05:25:33.768Z,6.38
2023-01-21T05:26:36.400Z,7.54
2023-01-21T05:27:38.982Z,8.71
2023-01-21T05:28:41.516Z,7.51
2023-01-21T05:29:44.049Z,6.88
2023-01-21T05:30:46.831Z,10.64
2023-01-21T05:31:49.388Z,9.02
2023-01-21T05:32:52.132Z,8.60
2023-01-21T05:33:54.641Z,6.79
2023-01-21T05:34:57.177Z,6.23
2023-01-21T05:35:59.717Z,7.47
2023-01-21T05:37:02.276Z,7.67
2023-01-21T05:38:04.846Z,5.05
2023-01-21T05:39:07.365Z,5.80
2023-01-21T05:40:10.820Z,7.99
2023-01-21T05:41:13.424Z,11.98
2023-01-21T05:42:16.167Z,8.72
2023-01-21T05:43:19.041Z,8.33
2023-01-21T05:44:21.580Z,8.10
2023-01-21T05:45:24.103Z,6.95
2023-01-21T05:46:26.775Z,7.23
2023-01-21T05:47:29.583Z,10.15
2023-01-21T05:48:32.188Z,9.17
2023-01-21T05:49:34.737Z,6.80
2023-01-21T05:50:37.357Z,7.65
2023-01-21T05:51:39.936Z,6.39
2023-01-21T05:52:42.533Z,7.33
2023-01-21T05:53:45.092Z,8.57
2023-01-21T05:55:00.981Z,7.41
2023-01-21T05:55:51.985Z,8.84
2023-01-21T05:56:54.769Z,9.62
2023-01-21T05:57:57.325Z,6.95
2023-01-21T05:58:59.859Z,7.72
2023-01-21T06:00:02.416Z,6.56
2023-01-21T06:01:04.934Z,6.30
2023-01-21T06:02:07.500Z,7.33
2023-01-21T06:03:10.005Z,13.92
2023-01-21T06:04:12.620Z,6.41
2023-01-21T06:05:15.161Z,5.24
2023-01-21T06:06:17.713Z,13.81
2023-01-21T06:07:20.236Z,12.29
2023-01-21T06:08:22.772Z,6.15
2023-01-21T06:09:25.333Z,7.07
2023-01-21T06:10:28.174Z,7.87
2023-01-21T06:11:30.719Z,10.03
2023-01-21T06:12:33.184Z,7.97
2023-01-21T06:13:35.828Z,9.81
2023-01-21T06:14:38.405Z,7.33
2023-01-21T06:15:41.117Z,6.04
2023-01-21T06:16:44.264Z,9.04
2023-01-21T06:17:47.572Z,6.91
2023-01-21T06:18:50.366Z,18.45
2023-01-21T06:19:53.008Z,11.69
2023-01-21T06:20:55.523Z,7.90
2023-01-21T06:21:58.094Z,5.65
2023-01-21T06:23:01.170Z,7.74
2023-01-21T06:24:05.446Z,8.96
2023-01-21T06:25:07.994Z,5.96
2023-01-21T06:26:11.087Z,8.73
2023-01-21T06:27:13.627Z,6.99
2023-01-21T06:28:16.179Z,8.45
2023-01-21T06:29:18.719Z,5.14
2023-01-21T06:30:21.530Z,8.13
2023-01-21T06:31:24.145Z,9.06
2023-01-21T06:32:27.167Z,9.00
2023-01-21T06:33:29.698Z,6.97
2023-01-21T06:34:32.230Z,8.08
2023-01-21T06:35:34.769Z,6.51
2023-01-21T06:36:37.444Z,6.43
2023-01-21T06:37:40.004Z,6.91
2023-01-21T06:38:42.756Z,7.40
2023-01-21T06:39:45.268Z,7.54
2023-01-21T06:40:48.104Z,15.15
2023-01-21T06:41:50.705Z,7.28
2023-01-21T06:42:53.255Z,8.64
2023-01-21T06:43:55.792Z,9.37
2023-01-21T06:44:58.392Z,14.49
2023-01-21T06:46:01.022Z,7.51
2023-01-21T06:47:03.855Z,8.87
2023-01-21T06:48:06.457Z,10.07
2023-01-21T06:49:08.971Z,14.41
2023-01-21T06:50:11.809Z,7.95
2023-01-21T06:51:14.448Z,7.35
2023-01-21T06:52:17.156Z,8.79
2023-01-21T06:53:19.683Z,7.83
2023-01-21T06:54:22.239Z,12.79
2023-01-21T06:55:24.775Z,8.19
2023-01-21T06:56:27.569Z,7.97
2023-01-21T06:57:30.092Z,7.92
2023-01-21T06:58:32.629Z,12.71
2023-01-21T06:59:35.155Z,7.27
2023-01-21T07:00:37.925Z,9.79
2023-01-21T07:01:40.497Z,9.46
2023-01-21T07:02:43.065Z,8.53
2023-01-21T07:03:45.874Z,9.49
2023-01-21T07:04:48.538Z,8.71
2023-01-21T07:05:51.296Z,12.65
2023-01-21T07:06:54.115Z,9.61
2023-01-21T07:07:56.724Z,12.00
2023-01-21T07:08:59.270Z,9.19
2023-01-21T07:10:01.820Z,11.46
2023-01-21T07:11:04.357Z,14.29
2023-01-21T07:12:06.888Z,11.87
2023-01-21T07:13:09.518Z,9.09
2023-01-21T07:14:12.041Z,11.98
2023-01-21T07:15:14.800Z,11.70
2023-01-21T07:16:18.077Z,10.76
2023-01-21T07:17:20.589Z,17.99
2023-01-21T07:18:23.093Z,8.85
2023-01-21T07:19:25.725Z,10.79
2023-01-21T07:20:28.281Z,14.61
2023-01-21T07:21:30.801Z,10.58
2023-01-21T07:22:33.357Z,11.92
2023-01-21T07:23:36.351Z,12.26
2023-01-21T07:24:38.884Z,16.60
2023-01-21T07:25:41.426Z,12.11
2023-01-21T07:26:44.275Z,15.30
2023-01-21T07:27:46.805Z,14.55
2023-01-21T07:28:49.361Z,10.95
2023-01-21T07:29:51.902Z,12.80
2023-01-21T07:30:54.790Z,13.86
2023-01-21T07:31:57.655Z,11.04
2023-01-21T07:33:00.335Z,12.44
2023-01-21T07:34:02.943Z,17.43
2023-01-21T07:35:05.480Z,14.37
2023-01-21T07:36:09.295Z,9.98
2023-01-21T07:37:11.838Z,17.80
2023-01-21T07:38:14.548Z,11.23
2023-01-21T07:39:17.093Z,12.28
2023-01-21T07:40:19.975Z,14.14
2023-01-21T07:41:22.555Z,13.79
2023-01-21T07:42:25.173Z,12.79
2023-01-21T07:43:27.703Z,12.59
2023-01-21T07:44:30.294Z,10.44
2023-01-21T07:45:32.847Z,14.99
2023-01-21T07:46:35.825Z,14.61
2023-01-21T07:47:38.324Z,13.16
2023-01-21T07:48:40.850Z,15.01
2023-01-21T07:49:43.440Z,13.62
2023-01-21T07:50:46.327Z,12.74
2023-01-21T07:51:48.769Z,13.92
2023-01-21T07:52:51.301Z,15.49
2023-01-21T07:53:53.845Z,11.04
2023-01-21T07:54:56.446Z,14.78
2023-01-21T07:55:59.019Z,12.92
2023-01-21T07:57:01.655Z,22.57
2023-01-21T07:58:04.286Z,10.67
2023-01-21T07:59:06.856Z,14.87
2023-01-21T08:00:10.076Z,11.14
2023-01-21T08:01:12.603Z,13.65
2023-01-21T08:02:15.193Z,14.37
2023-01-21T08:03:18.084Z,15.85
2023-01-21T08:04:20.644Z,19.36
2023-01-21T08:05:23.203Z,12.00
2023-01-21T08:06:26.054Z,22.27
2023-01-21T08:07:28.602Z,16.71
2023-01-21T08:08:31.135Z,16.17
2023-01-21T08:09:33.682Z,13.33
2023-01-21T08:10:36.430Z,12.48
2023-01-21T08:11:39.017Z,11.03
2023-01-21T08:12:42.871Z,12.95
2023-01-21T08:13:45.405Z,13.08
2023-01-21T08:14:47.943Z,13.28
2023-01-21T08:15:50.490Z,11.63
2023-01-21T08:16:53.341Z,17.02
2023-01-21T08:17:56.085Z,17.44
2023-01-21T08:18:58.683Z,18.99
2023-01-21T08:20:01.221Z,20.37
2023-01-21T08:21:03.816Z,15.31
2023-01-21T08:22:06.448Z,14.92
2023-01-21T08:23:08.981Z,17.80
2023-01-21T08:24:11.511Z,13.66
2023-01-21T08:25:14.542Z,16.34
2023-01-21T08:26:17.755Z,13.62
2023-01-21T08:27:20.313Z,19.31
2023-01-21T08:28:22.966Z,14.90
2023-01-21T08:29:25.492Z,15.51
2023-01-21T08:30:28.326Z,12.68
2023-01-21T08:31:31.120Z,13.91
2023-01-21T08:32:33.731Z,13.65
2023-01-21T08:33:36.243Z,16.68
2023-01-21T08:34:38.791Z,13.15
2023-01-21T08:35:41.350Z,16.09
2023-01-21T08:36:44.107Z,16.14
2023-01-21T08:37:46.647Z,17.22
2023-01-21T08:38:49.236Z,21.10
2023-01-21T08:39:51.800Z,15.51
2023-01-21T08:40:54.734Z,18.04
2023-01-21T08:41:57.283Z,12.15
2023-01-21T08:42:59.875Z,15.58
2023-01-21T08:44:02.390Z,14.78
2023-01-21T08:45:04.958Z,12.85
2023-01-21T08:46:07.846Z,15.70
2023-01-21T08:47:10.753Z,14.44
2023-01-21T08:48:13.194Z,14.77
2023-01-21T08:49:15.741Z,20.19
2023-01-21T08:50:18.803Z,17.15
2023-01-21T08:51:21.434Z,16.90
2023-01-21T08:52:24.090Z,19.39
2023-01-21T08:53:26.606Z,16.14
2023-01-21T08:54:29.174Z,14.27
2023-01-21T08:55:31.721Z,13.70
2023-01-21T08:56:34.486Z,18.07
2023-01-21T08:57:37.061Z,17.97
2023-01-21T08:58:39.626Z,15.21
2023-01-21T08:59:42.163Z,14.43
2023-01-21T09:00:44.916Z,13.07
2023-01-21T09:01:47.625Z,18.87
2023-01-21T09:02:51.708Z,15.85
2023-01-21T09:03:54.582Z,14.82
2023-01-21T09:04:57.216Z,14.57
2023-01-21T09:05:59.754Z,16.26
2023-01-21T09:07:02.303Z,16.74
2023-01-21T09:08:05.043Z,15.61
2023-01-21T09:09:07.658Z,16.19
2023-01-21T09:10:10.409Z,19.45
2023-01-21T09:11:12.954Z,16.49
2023-01-21T09:12:15.487Z,18.38
2023-01-21T09:13:18.026Z,19.10
2023-01-21T09:14:20.583Z,16.17
2023-01-21T09:15:23.123Z,14.40
2023-01-21T09:16:25.809Z,18.61
2023-01-21T09:17:28.320Z,13.17
2023-01-21T09:18:30.865Z,15.35
2023-01-21T09:19:33.461Z,17.64
2023-01-21T09:20:36.144Z,14.32
2023-01-21T09:21:38.651Z,15.58
2023-01-21T09:22:41.204Z,14.34
2023-01-21T09:23:43.729Z,19.69
2023-01-21T09:24:46.304Z,15.58
2023-01-21T09:25:48.853Z,15.75
2023-01-21T09:26:51.389Z,20.81
2023-01-21T09:27:53.942Z,17.97
2023-01-21T09:28:56.495Z,16.61
2023-01-21T09:29:59.031Z,18.92
2023-01-21T09:31:01.922Z,21.68
2023-01-21T09:32:04.477Z,26.08
2023-01-21T09:33:07.306Z,21.94
2023-01-21T09:34:09.858Z,26.43
2023-01-21T09:35:12.421Z,20.15
2023-01-21T09:36:15.252Z,16.56
2023-01-21T09:37:17.801Z,16.69
2023-01-21T09:38:20.334Z,23.93
2023-01-21T09:39:22.906Z,20.80
2023-01-21T09:40:25.659Z,13.49
2023-01-21T09:41:28.280Z,13.59
2023-01-21T09:42:30.847Z,31.36
2023-01-21T09:43:33.462Z,29.97
2023-01-21T09:44:36.031Z,23.67
2023-01-21T09:45:38.574Z,22.92
2023-01-21T09:46:41.310Z,21.42
2023-01-21T09:47:43.845Z,30.41
2023-01-21T09:48:46.477Z,29.05
2023-01-21T09:49:49.076Z,19.53
2023-01-21T09:50:51.788Z,21.27
2023-01-21T09:51:54.361Z,16.09
2023-01-21T09:52:56.896Z,19.19
2023-01-21T09:53:59.444Z,18.63
2023-01-21T09:55:02.010Z,13.97
2023-01-21T09:56:04.783Z,16.08
2023-01-21T09:57:07.294Z,14.38
2023-01-21T09:58:09.812Z,17.23
2023-01-21T09:59:12.362Z,21.08
2023-01-21T10:00:15.171Z,18.13
2023-01-21T10:01:18.056Z,19.04
2023-01-21T10:02:20.716Z,20.99
2023-01-21T10:03:23.486Z,19.74
2023-01-21T10:04:26.064Z,17.13
2023-01-21T10:05:28.619Z,26.57
2023-01-21T10:06:31.467Z,17.12
2023-01-21T10:07:34.015Z,20.63
2023-01-21T10:08:36.540Z,18.23
2023-01-21T10:09:39.079Z,18.90
2023-01-21T10:10:41.850Z,16.00
2023-01-21T10:11:46.202Z,24.95
2023-01-21T10:12:48.767Z,28.62
2023-01-21T10:13:51.305Z,29.08
2023-01-21T10:14:53.875Z,25.46
2023-01-21T10:15:56.442Z,29.69
2023-01-21T10:16:59.456Z,29.86
2023-01-21T10:18:02.078Z,32.95
2023-01-21T10:19:04.604Z,21.95
2023-01-21T10:20:07.962Z,23.67
2023-01-21T10:21:10.532Z,28.08
2023-01-21T10:22:13.067Z,30.37
2023-01-21T10:23:15.709Z,18.05
2023-01-21T10:24:18.261Z,16.25
2023-01-21T10:25:20.785Z,20.65
2023-01-21T10:26:23.482Z,15.87
2023-01-21T10:27:26.059Z,20.70
2023-01-21T10:28:28.812Z,22.49
2023-01-21T10:29:31.344Z,20.13
2023-01-21T10:30:34.491Z,14.87
2023-01-21T10:31:37.479Z,17.14
2023-01-21T10:32:40.344Z,19.82
2023-01-21T10:33:42.926Z,19.76
2023-01-21T10:34:45.461Z,18.08
2023-01-21T10:35:48.003Z,16.85
2023-01-21T10:36:50.962Z,12.88
2023-01-21T10:37:53.507Z,18.75
2023-01-21T10:38:56.037Z,18.21
2023-01-21T10:39:58.577Z,18.34
2023-01-21T10:41:01.336Z,16.81
2023-01-21T10:42:03.878Z,17.77
2023-01-21T10:43:06.430Z,17.43
2023-01-21T10:44:08.989Z,14.46
2023-01-21T10:45:11.549Z,22.83
2023-01-21T10:46:14.733Z,20.17
2023-01-21T10:47:17.284Z,16.24
2023-01-21T10:48:19.822Z,19.85
2023-01-21T10:49:22.368Z,15.31
2023-01-21T10:50:25.123Z,16.46
2023-01-21T10:51:27.670Z,19.41
2023-01-21T10:52:30.186Z,14.62
2023-01-21T10:53:32.723Z,21.39
2023-01-21T10:54:35.270Z,24.11
2023-01-21T10:55:37.741Z,17.84
2023-01-21T10:56:40.839Z,20.99
2023-01-21T10:57:43.381Z,17.59
2023-01-21T10:58:45.929Z,21.25
2023-01-21T10:59:48.522Z,17.61
2023-01-21T11:00:51.257Z,18.42
2023-01-21T11:01:53.819Z,20.00
2023-01-21T11:02:56.339Z,18.74
2023-01-21T11:03:58.885Z,18.10
2023-01-21T11:05:01.431Z,22.67
2023-01-21T11:06:04.178Z,20.35
2023-01-21T11:07:06.705Z,21.40
2023-01-21T11:08:09.171Z,21.13
2023-01-21T11:09:12.212Z,19.41
2023-01-21T11:10:14.920Z,18.41
2023-01-21T11:11:17.532Z,18.47
2023-01-21T11:12:20.064Z,19.57
2023-01-21T11:13:22.603Z,22.39
2023-01-21T11:14:25.172Z,15.23
2023-01-21T11:15:27.909Z,18.58
2023-01-21T11:16:30.865Z,21.02
2023-01-21T11:17:33.397Z,18.02
2023-01-21T11:18:35.980Z,18.45
2023-01-21T11:19:38.570Z,18.34
2023-01-21T11:20:41.517Z,20.45
2023-01-21T11:21:44.092Z,24.62
2023-01-21T11:22:46.571Z,23.67
2023-01-21T11:23:49.121Z,25.07
2023-01-21T11:24:51.821Z,25.53
2023-01-21T11:25:54.890Z,19.98
2023-01-21T11:26:58.359Z,19.86
2023-01-21T11:28:00.891Z,22.69
2023-01-21T11:29:05.609Z,18.04
2023-01-21T11:30:25.892Z,18.85
2023-01-21T11:31:12.539Z,20.66
2023-01-21T11:32:15.348Z,28.99
2023-01-21T11:33:18.160Z,22.01
2023-01-21T11:34:20.704Z,17.04
2023-01-21T11:35:23.241Z,25.76
2023-01-21T11:36:25.877Z,20.27
2023-01-21T11:37:28.434Z,19.10
2023-01-21T11:38:30.966Z,20.79
2023-01-21T11:39:33.524Z,17.07
2023-01-21T11:40:36.263Z,18.26
2023-01-21T11:41:38.861Z,18.53
2023-01-21T11:42:41.332Z,17.01
2023-01-21T11:43:43.837Z,17.80
2023-01-21T11:44:46.325Z,17.65
2023-01-21T11:45:48.911Z,15.82
2023-01-21T11:46:51.628Z,18.03
2023-01-21T11:47:54.160Z,18.27
2023-01-21T11:48:56.688Z,21.76
2023-01-21T11:49:59.193Z,17.63
2023-01-21T11:51:02.107Z,30.95
2023-01-21T11:52:04.740Z,43.83
2023-01-21T11:53:07.302Z,24.78
2023-01-21T11:54:09.847Z,31.94
2023-01-21T11:55:12.385Z,33.55
2023-01-21T11:56:15.044Z,39.40
2023-01-21T11:57:17.566Z,59.65
2023-01-21T11:58:20.111Z,49.96
2023-01-21T11:59:22.668Z,40.64
2023-01-21T12:00:25.400Z,31.39
2023-01-21T12:01:28.664Z,30.03
2023-01-21T12:02:31.262Z,31.19
2023-01-21T12:03:34.149Z,38.62
2023-01-21T12:04:36.798Z,31.21
2023-01-21T12:05:39.440Z,24.60
2023-01-21T12:06:42.417Z,28.84
2023-01-21T12:07:44.995Z,29.67
2023-01-21T12:08:47.525Z,24.77
2023-01-21T12:09:50.063Z,17.82
2023-01-21T12:10:53.008Z,18.27
2023-01-21T12:11:55.800Z,20.27
2023-01-21T12:12:58.343Z,18.31
2023-01-21T12:14:00.888Z,21.13
2023-01-21T12:15:03.462Z,32.02
2023-01-21T12:16:06.460Z,20.54
2023-01-21T12:17:09.118Z,19.19
2023-01-21T12:18:11.660Z,22.66
2023-01-21T12:19:14.190Z,22.67
2023-01-21T12:20:17.241Z,20.97
2023-01-21T12:21:20.253Z,19.72
2023-01-21T12:22:23.127Z,25.49
2023-01-21T12:23:25.746Z,31.14
2023-01-21T12:24:28.305Z,27.35
2023-01-21T12:25:30.894Z,29.71
2023-01-21T12:26:33.930Z,24.88
2023-01-21T12:27:36.836Z,20.57
2023-01-21T12:28:39.412Z,18.32
2023-01-21T12:29:46.471Z,23.93
2023-01-21T12:30:47.236Z,17.59
2023-01-21T12:31:49.907Z,20.02
2023-01-21T12:32:52.624Z,18.96
2023-01-21T12:33:55.186Z,23.10
2023-01-21T12:34:57.739Z,16.10
2023-01-21T12:36:00.286Z,20.51
2023-01-21T12:37:02.849Z,22.35
2023-01-21T12:38:05.473Z,19.41
2023-01-21T12:39:08.043Z,21.77
2023-01-21T12:40:10.983Z,19.73
2023-01-21T12:41:13.614Z,19.34
2023-01-21T12:42:17.097Z,18.33
2023-01-21T12:43:19.937Z,58.97
2023-01-21T12:44:22.948Z,79.63
2023-01-21T12:45:25.516Z,88.49
2023-01-21T12:46:28.603Z,144.39
2023-01-21T12:47:31.157Z,269.58
2023-01-21T12:48:33.674Z,81.35
2023-01-21T12:49:36.461Z,139.13
2023-01-21T12:50:39.569Z,140.97
2023-01-21T12:51:42.099Z,53.54
2023-01-21T12:52:44.702Z,107.59
2023-01-21T12:53:47.214Z,39.99
2023-01-21T12:54:49.772Z,31.02
2023-01-21T12:55:52.297Z,33.67
2023-01-21T12:56:55.150Z,37.38
2023-01-21T12:57:57.751Z,25.78
2023-01-21T12:59:00.439Z,31.24
2023-01-21T13:00:03.082Z,28.47
2023-01-21T13:01:05.540Z,28.53
2023-01-21T13:02:08.031Z,20.43
2023-01-21T13:03:10.552Z,18.96
2023-01-21T13:04:13.069Z,21.54
2023-01-21T13:05:15.881Z,18.98
2023-01-21T13:06:19.148Z,22.27
2023-01-21T13:07:21.675Z,21.43
2023-01-21T13:08:24.240Z,18.51
2023-01-21T13:09:26.771Z,28.53
2023-01-21T13:10:29.629Z,27.49
2023-01-21T13:11:32.172Z,21.39
2023-01-21T13:12:34.699Z,22.17
2023-01-21T13:13:37.234Z,27.61
2023-01-21T13:14:39.800Z,25.15
2023-01-21T13:15:42.376Z,19.45
2023-01-21T13:16:45.004Z,23.35
2023-01-21T13:17:47.452Z,26.97
2023-01-21T13:18:50.009Z,30.10
2023-01-21T13:19:52.578Z,58.17
2023-01-21T13:20:55.380Z,112.23
2023-01-21T13:21:57.889Z,57.35
2023-01-21T13:23:00.433Z,44.24
2023-01-21T13:24:02.989Z,46.04
2023-01-21T13:25:05.523Z,77.61
2023-01-21T13:26:09.064Z,64.67
2023-01-21T13:27:11.628Z,51.82
2023-01-21T13:28:14.151Z,95.04
2023-01-21T13:29:16.979Z,32.01
2023-01-21T13:30:20.185Z,67.78
2023-01-21T13:31:23.005Z,40.33
2023-01-21T13:32:25.871Z,17.35
2023-01-21T13:33:28.459Z,29.75
2023-01-21T13:34:30.999Z,39.45
2023-01-21T13:35:33.549Z,47.61
2023-01-21T13:36:36.182Z,76.03
2023-01-21T13:37:38.720Z,198.45
2023-01-21T13:38:41.259Z,304.29
2023-01-21T13:39:43.819Z,289.13